Latest Weather Observations for Mount Magnet Airport

IDW60801

Issued at 9:32 am WST Sunday 29 May 2016 (issued every 30 minutes, with the page automatically refreshed every 10 minutes)

About weather observations | Map of weather stations | Latest weather observations for WA | Other Formats
Station Details ID: 007600 Name: MOUNT MAGNET AERO Lat: -28.12 Lon: 117.84 Height: 407.0 m
Data from the previous 72 hours. | See also: Recent months at Mount Magnet Airport
Date/Time
WST
Temp
°C
App
Temp
°C
Dew
Point
Rel
Hum
%
Delta-T
°C
Wind Press
QNH
hPa
Press
MSL
hPa
Rain
since 9 am
mm
Dir
 
Spd
km/h
Gust
km/h
Spd
kts
Gust
kts
29/09:30am 15.3 13.2 9.7 69 3.0 SE 11 15 6 8 1019.9 1018.8 0.0
29/09:00am 14.5 12.7 10.7 78 2.0 SE 11 15 6 8 1019.8 1018.7 0.0
29/08:30am 14.2 12.0 10.8 80 1.8 SE 13 19 7 10 1019.5 1018.4 0.0
29/08:00am 13.5 11.7 11.0 85 1.3 SSE 11 15 6 8 1019.2 1018.0 0.0
29/07:30am 13.2 11.5 11.3 88 1.0 SSE 11 13 6 7 1018.8 1017.7 0.0
29/07:00am 13.3 11.4 11.9 91 0.8 S 13 15 7 8 1018.6 1017.5 0.0
29/06:30am 13.4 12.4 12.3 93 0.6 SSW 9 13 5 7 1018.2 1017.1 0.0
29/06:00am 13.5 11.7 12.2 92 0.7 SSW 13 15 7 8 1017.6 1016.5 0.0
29/05:30am 13.8 12.5 12.4 91 0.8 SW 11 15 6 8 1017.7 1016.6 0.0
29/05:00am 13.9 12.5 12.3 90 0.9 SSW 11 13 6 7 1017.5 1016.4 0.0
29/04:30am 14.0 12.6 12.2 89 1.0 SW 11 13 6 7 1017.4 1016.3 0.0
29/04:00am 14.2 12.8 12.2 88 1.1 SSW 11 13 6 7 1017.2 1016.1 0.0
29/03:30am 14.2 13.2 12.4 89 1.0 SW 9 11 5 6 1017.3 1016.2 0.0
29/03:00am 14.2 13.3 12.6 90 0.9 WSW 9 11 5 6 1017.1 1016.0 0.0
29/02:30am 14.1 13.8 12.7 91 0.8 SW 6 9 3 5 1017.0 1015.8 0.0
29/02:00am 14.2 13.7 12.6 90 0.9 SW 7 11 4 6 1017.0 1015.8 0.0
29/01:30am 14.2 13.7 12.8 91 0.8 WSW 7 9 4 5 1017.3 1016.2 0.0
29/01:00am 14.1 13.7 12.5 90 0.9 SSE 6 6 3 3 1017.1 1016.0 0.0
29/12:30am 14.0 14.4 12.4 90 0.9 SSE 2 6 1 3 1016.8 1015.6 0.0
29/12:00am 14.2 13.3 12.6 90 0.9 SSE 9 11 5 6 1017.0 1015.8 0.0
 
Date/Time
WST
Temp
°C
App
Temp
°C
Dew
Point
Rel
Hum
%
Delta-T
°C
Wind Press
QNH
hPa
Press
MSL
hPa
Rain
since 9 am
mm
Dir
 
Spd
km/h
Gust
km/h
Spd
kts
Gust
kts
28/11:30pm 14.4 13.5 12.6 89 1.0 S 9 11 5 6 1017.4 1016.3 0.0
28/11:00pm 14.5 13.1 13.4 93 0.6 SSW 13 17 7 9 1018.0 1016.9 0.0
28/10:30pm 14.7 12.9 13.2 91 0.8 SW 15 20 8 11 1018.1 1017.0 0.0
28/10:00pm 15.2 14.7 13.7 91 0.9 SW 9 13 5 7 1018.2 1017.1 0.0
28/09:30pm 15.1 14.9 13.6 91 0.9 WSW 7 9 4 5 1018.2 1017.1 0.0
28/09:00pm 15.3 15.1 13.7 90 0.9 SW 7 9 4 5 1018.1 1017.0 0.0
28/08:30pm 15.4 15.3 13.8 90 0.9 SSW 7 9 4 5 1017.7 1016.6 0.0
28/08:00pm 15.5 14.6 13.7 89 1.0 SSW 11 15 6 8 1017.5 1016.4 0.0
28/07:30pm 16.1 14.8 13.8 86 1.3 S 13 17 7 9 1017.4 1016.3 0.0
28/07:00pm 17.3 15.3 12.8 75 2.6 S 15 22 8 12 1017.1 1016.0 0.0
28/06:30pm 17.7 16.1 12.8 73 2.8 S 13 15 7 8 1016.4 1015.3 0.0
28/06:00pm 18.0 16.4 12.9 72 2.9 S 13 19 7 10 1016.2 1015.1 0.0
28/05:30pm 18.2 16.2 12.6 70 3.2 SSW 15 22 8 12 1015.9 1014.8 0.0
28/05:00pm 19.4 17.1 11.7 61 4.3 SW 15 19 8 10 1015.8 1014.7 0.0
28/04:30pm 20.1 17.1 10.5 54 5.3 WSW 17 28 9 15 1015.5 1014.4 0.0
28/04:00pm 20.1 16.7 10.5 54 5.3 WSW 19 26 10 14 1015.6 1014.5 0.0
28/03:30pm 20.2 16.3 9.5 50 5.8 WSW 20 26 11 14 1015.6 1014.5 0.0
28/03:00pm 20.4 17.0 9.0 48 6.1 WSW 17 22 9 12 1015.7 1014.6 0.0
28/02:30pm 20.7 16.8 8.7 46 6.4 WSW 19 26 10 14 1015.9 1014.8 0.0
28/02:00pm 20.0 15.5 8.7 48 6.0 WSW 22 32 12 17 1015.9 1014.8 0.0
28/01:30pm 19.7 15.7 8.4 48 6.0 WSW 19 32 10 17 1016.0 1014.9 0.0
28/01:00pm 20.0 16.3 8.0 46 6.3 WSW 17 26 9 14 1016.2 1015.1 0.0
28/12:30pm 19.5 15.4 6.3 42 6.7 WSW 17 28 9 15 1016.6 1015.4 0.0
28/12:00pm 18.9 15.0 5.4 41 6.7 WSW 15 20 8 11 1017.0 1015.8 0.0
28/11:30am 18.5 14.1 6.7 46 6.0 SW 19 28 10 15 1017.6 1016.5 0.0
28/11:00am 17.6 13.2 7.6 52 5.1 SW 20 30 11 16 1018.0 1016.9 0.0
28/10:30am 17.0 13.6 9.2 60 4.1 WSW 17 22 9 12 1018.3 1017.2 0.0
28/10:00am 16.4 12.8 9.8 65 3.5 WSW 19 22 10 12 1018.5 1017.4 0.0
28/09:30am 15.8 12.1 10.1 69 3.1 WSW 20 26 11 14 1018.6 1017.5 0.0
28/09:00am 15.2 11.8 10.6 74 2.5 WSW 19 26 10 14 1018.3 1017.2 0.6
28/08:30am 14.2 11.0 10.0 76 2.2 WSW 17 20 9 11 1018.1 1017.0 0.6
28/08:00am 13.2 10.1 10.2 82 1.6 WSW 17 24 9 13 1017.9 1016.8 0.6
28/07:30am 12.7 10.3 10.1 84 1.4 W 13 19 7 10 1017.6 1016.5 0.6
28/07:00am 11.8 9.8 10.0 89 0.9 W 11 15 6 8 1017.2 1016.1 0.6
28/06:30am 11.2 9.6 10.1 93 0.6 WNW 9 9 5 5 1016.8 1015.6 0.6
28/06:00am 11.2 10.1 10.1 93 0.6 WNW 6 7 3 4 1016.6 1015.4 0.6
28/05:30am 11.7 11.1 10.4 92 0.7 WSW 4 7 2 4 1016.6 1015.4 0.6
28/05:00am 12.2 11.3 10.8 91 0.7 WNW 6 11 3 6 1016.4 1015.3 0.6
28/04:30am 12.3 12.2 10.9 91 0.7 WNW 2 6 1 3 1016.2 1015.1 0.6
28/04:00am 12.5 12.6 11.4 93 0.6 W 2 7 1 4 1016.2 1015.1 0.6
28/03:30am 13.0 11.5 11.9 93 0.6 WNW 11 13 6 7 1016.3 1015.2 0.6
28/03:00am 13.2 12.4 11.6 90 0.9 NNW 7 9 4 5 1016.3 1015.2 0.6
28/02:30am 13.6 12.6 12.2 91 0.8 N 9 9 5 5 1016.6 1015.4 0.6
28/02:00am 13.9 12.9 12.3 90 0.9 N 9 11 5 6 1016.7 1015.5 0.6
28/01:30am 14.2 13.4 12.8 91 0.8 NE 9 11 5 6 1017.0 1015.8 0.6
28/01:00am 14.6 15.6 13.3 92 0.7 CALM 0 0 0 0 1017.2 1016.1 0.6
28/12:30am 14.9 15.8 12.9 88 1.1 CALM 0 0 0 0 1017.6 1016.5 0.6
28/12:00am 15.0 16.0 13.2 89 1.0 CALM 0 0 0 0 1017.9 1016.8 0.6
 
Date/Time
WST
Temp
°C
App
Temp
°C
Dew
Point
Rel
Hum
%
Delta-T
°C
Wind Press
QNH
hPa
Press
MSL
hPa
Rain
since 9 am
mm
Dir
 
Spd
km/h
Gust
km/h
Spd
kts
Gust
kts
27/11:30pm 15.4 15.0 12.5 83 1.6 SSE 6 9 3 5 1018.1 1017.0 0.6
27/11:00pm 15.7 16.4 12.1 79 2.0 CALM 0 0 0 0 1018.3 1017.2 0.4
27/10:30pm 15.8 16.2 12.5 81 1.9 SSE 2 7 1 4 1018.6 1017.5 0.4
27/10:00pm 16.4 17.0 12.0 75 2.4 CALM 0 0 0 0 1018.5 1017.4 0.0
27/09:30pm 16.1 17.1 13.2 83 1.7 CALM 0 0 0 0 1018.8 1017.7 0.0
27/09:00pm 16.4 17.4 13.3 82 1.8 CALM 0 0 0 0 1018.7 1017.6 0.0
27/08:30pm 16.6 17.1 11.7 73 2.7 CALM 0 0 0 0 1018.6 1017.5 0.0
27/08:00pm 16.7 17.3 12.0 74 2.6 CALM 0 0 0 0 1018.6 1017.5 0.0
27/07:30pm 17.1 17.0 12.0 72 2.9 NNE 4 7 2 4 1018.6 1017.5 0.0
27/07:00pm 17.6 17.3 11.4 67 3.4 NNE 4 7 2 4 1018.5 1017.4 0.0
27/06:30pm 17.9 17.0 10.5 62 4.0 NNE 6 7 3 4 1018.5 1017.4 0.0
27/06:00pm 18.7 17.4 10.0 57 4.7 NNE 7 7 4 4 1018.4 1017.3 0.0
27/05:30pm 19.6 18.4 9.5 52 5.5 NNE 6 7 3 4 1018.4 1017.3 0.0
27/05:00pm 20.2 18.7 8.5 47 6.2 NNE 6 9 3 5 1018.4 1017.3 0.0
27/04:30pm 20.4 18.7 8.4 46 6.4 NNE 7 11 4 6 1018.2 1017.1 0.0
27/04:00pm 20.4 18.3 8.4 46 6.4 ENE 9 13 5 7 1018.2 1017.1 0.0
27/03:30pm 20.5 18.5 8.5 46 6.4 NE 9 15 5 8 1018.5 1017.4 0.0
27/03:00pm 20.9 19.0 8.9 46 6.5 NNE 9 15 5 8 1018.7 1017.6 0.0
27/02:30pm 20.7 18.1 7.7 43 6.8 NE 11 17 6 9 1018.8 1017.7 0.0
27/02:00pm 20.7 19.0 8.4 45 6.5 ENE 7 13 4 7 1019.1 1017.9 0.0
27/01:30pm 20.6 17.4 8.6 46 6.4 ENE 15 20 8 11 1019.5 1018.4 0.0
27/01:00pm 20.2 16.9 8.2 46 6.3 NNE 15 20 8 11 1019.9 1018.8 0.0
27/12:30pm 20.0 17.1 8.0 46 6.3 NE 13 24 7 13 1020.3 1019.2 0.0
27/12:00pm 19.1 15.4 8.1 49 5.8 NE 17 24 9 13 1020.9 1019.8 0.0
27/11:30am 18.5 14.6 8.5 52 5.3 NE 19 26 10 14 1021.5 1020.5 0.0
27/11:00am 18.3 14.4 8.8 54 5.0 NE 19 26 10 14 1021.9 1020.8 0.0
27/10:30am 17.2 13.2 9.1 59 4.3 ENE 20 28 11 15 1022.2 1021.1 0.0
27/10:00am 16.7 12.7 8.9 60 4.1 ENE 20 32 11 17 1022.5 1021.4 0.0
27/09:30am 16.0 12.1 9.4 65 3.5 ENE 20 30 11 16 1022.6 1021.5 0.0
27/09:00am 14.9 11.9 10.5 75 2.4 ENE 17 22 9 12 1022.7 1021.6 0.2
27/08:30am 13.0 11.1 10.4 84 1.4 NE 11 15 6 8 1022.5 1021.4 0.2
27/08:00am 11.8 10.3 10.4 91 0.7 ENE 9 11 5 6 1022.3 1021.2 0.2
27/07:30am 10.8 9.8 10.3 97 0.3 ENE 6 6 3 3 1022.2 1021.1 0.2
27/07:00am 9.5 8.2 9.2 98 0.2 E 6 7 3 4 1021.9 1020.8 0.2
27/06:30am 9.6 8.3 9.1 97 0.3 E 6 7 3 4 1021.9 1020.8 0.2
27/06:00am 9.8 8.5 9.3 97 0.3 E 6 7 3 4 1021.9 1020.8 0.2
27/05:30am 10.1 8.3 9.6 97 0.3 E 9 9 5 5 1021.8 1020.7 0.0
27/05:00am 10.5 9.2 9.9 96 0.3 ENE 7 9 4 5 1021.9 1020.8 0.0
27/04:30am 10.9 8.9 10.3 96 0.3 ESE 11 13 6 7 1021.9 1020.8 0.0
27/04:00am 11.1 9.6 10.5 96 0.3 ESE 9 13 5 7 1022.2 1021.1 0.0
27/03:30am 11.5 10.0 10.6 94 0.5 ESE 9 11 5 6 1022.5 1021.4 0.0
27/03:00am 12.0 10.6 10.9 93 0.6 ESE 9 11 5 6 1022.9 1021.8 0.0
27/02:30am 12.3 11.0 11.2 93 0.6 ESE 9 13 5 7 1023.0 1021.9 0.0
27/02:00am 12.6 11.3 11.3 92 0.7 SE 9 11 5 6 1023.2 1022.1 0.0
27/01:30am 13.0 11.8 11.6 91 0.8 SE 9 11 5 6 1023.5 1022.5 0.0
27/01:00am 13.3 12.4 11.5 89 1.0 SSE 7 11 4 6 1023.7 1022.7 0.0
27/12:30am 13.6 12.5 12.0 90 0.9 S 9 11 5 6 1023.8 1022.8 0.0
27/12:00am 13.8 13.2 11.7 87 1.1 SSW 6 7 3 4 1023.5 1022.5 0.0
 
Date/Time
WST
Temp
°C
App
Temp
°C
Dew
Point
Rel
Hum
%
Delta-T
°C
Wind Press
QNH
hPa
Press
MSL
hPa
Rain
since 9 am
mm
Dir
 
Spd
km/h
Gust
km/h
Spd
kts
Gust
kts
26/11:30pm 14.1 12.9 11.6 85 1.4 SSE 9 11 5 6 1023.0 1021.9 0.0
26/11:00pm 14.1 12.6 11.8 86 1.3 ENE 11 17 6 9 1022.1 1021.0 0.0
26/10:30pm 14.0 12.5 11.9 87 1.2 ENE 11 11 6 6 1022.7 1021.6 0.0
26/10:00pm 14.1 13.4 12.1 88 1.1 SSE 7 7 4 4 1023.2 1022.1 0.0
26/09:30pm 14.4 13.4 12.3 87 1.2 SSW 9 9 5 5 1024.1 1023.1 0.0
26/09:00pm 14.7 13.6 12.0 84 1.5 SSE 9 11 5 6 1023.3 1022.2 0.0
26/08:30pm 14.6 14.0 11.6 82 1.6 SSE 6 7 3 4 1022.7 1021.6 0.0
26/08:00pm 14.8 14.0 11.6 81 1.7 SSW 7 9 4 5 1022.7 1021.6 0.0
26/07:30pm 14.9 15.1 11.7 81 1.8 S 2 6 1 3 1023.0 1021.9 0.0
26/07:00pm 15.1 14.3 11.7 80 1.9 S 7 9 4 5 1022.2 1021.1 0.0
26/06:30pm 15.2 14.3 11.4 78 2.1 S 7 9 4 5 1022.2 1021.1 0.0
26/06:00pm 15.4 14.8 11.6 78 2.1 S 6 9 3 5 1021.5 1020.5 0.0
26/05:30pm 15.5 14.5 11.1 75 2.4 SSE 7 11 4 6 1020.7 1019.6 0.0
26/05:00pm 15.7 14.0 11.1 74 2.5 S 11 13 6 7 1020.2 1019.1 0.0
26/04:30pm 15.8 13.7 11.0 73 2.6 SSW 13 15 7 8 1020.6 1019.5 0.0
26/04:00pm 16.0 13.9 11.0 72 2.7 S 13 15 7 8 1020.8 1019.7 0.0
26/03:30pm 16.1 13.8 10.6 70 3.0 SSW 13 19 7 10 1020.3 1019.2 0.0
26/03:00pm 16.2 14.0 10.9 71 2.9 S 13 17 7 9 1019.8 1018.7 0.0
26/02:30pm 16.2 12.7 10.3 68 3.2 SSW 19 26 10 14 1019.8 1018.7 0.0
26/02:00pm 16.6 13.0 10.0 65 3.5 SSW 19 22 10 12 1019.9 1018.8 0.0
26/01:30pm 16.5 14.1 9.9 65 3.5 S 13 17 7 9 1019.9 1018.8 0.0
26/01:00pm 16.4 13.3 10.3 67 3.3 SSW 17 20 9 11 1020.1 1019.0 0.0
26/12:30pm 16.3 13.9 10.2 67 3.3 SSW 13 19 7 10 1019.7 1018.6 0.0
26/12:00pm 16.8 14.1 10.4 66 3.5 SW 15 20 8 11 1020.3 1019.2 0.0
26/11:30am 16.7 14.5 10.8 68 3.2 SSW 13 20 7 11 1020.2 1019.1 0.0
26/11:00am 15.9 14.2 11.3 74 2.5 SSW 11 15 6 8 1020.3 1019.2 0.0
26/10:30am 15.3 14.0 11.3 77 2.2 S 9 15 5 8 1020.5 1019.4 0.0
26/10:00am 14.9 12.1 11.5 80 1.9 SSW 17 22 9 12 1020.7 1019.6 0.0

Other Formats:

Comma delimited format used in spreadsheet applications
http://www.bom.gov.au/fwo/IDW60801/IDW60801.94429.axf

JavaScript Object Notation format (JSON) in row-major order
http://www.bom.gov.au/fwo/IDW60801/IDW60801.94429.json